Tiempo atmosférico en la estación meteorológica de Zamora, Zamora (656 m.)



Fecha
DESCASC
Temp. máxima en grados centígrados (hora)
DESCASC
Temp. mínima en grados centígrados (hora)
DESCASC
Temp. media en grados centígrados
DESCASC
Racha de viento máxima en m/sg (hora)
DESCASC
Velocidad máxima media en intervalos de 10 minutos(hora)
DESCASC
Precipitaciones diarias en mm
DESCASC
Precipitaciones de 00:00 a 06:00 en mm
DESCASC
Precipitaciones de 06:00 a 12:00 en mm
DESCASC
Precipitaciones de 12:00 a 18:00 en mm
DESCASC
Precipitaciones de 18:00 a 24:00 en mm
DESCASC
18-08-2019 29.8 (17:10) 16.9 (07:50) 23.3 7.22 (17:10) 3.06 (15:20) 0 0 0 0 0
17-08-2019 35.3 (17:10) 15.7 (07:50) 25.5 7.78 (17:20) 2.78 (19:00) 0 0 0 0 0
16-08-2019 35.6 (18:10) 16.6 (07:30) 26.1 7.78 (00:30) 4.44 (00:10) 0 0 0 0 0
15-08-2019 33.5 (17:50) 16.6 (00:00) 25.1 7.5 (23:50) 4.44 (23:50) 0 0 0 0 0
14-08-2019 33.4 (17:50) 13.2 (00:00) 23.3 5.56 (19:50) 2.22 (18:00) 0 0 0 0 0
13-08-2019 28.7 (18:50) 9.9 (00:00) 19.3 6.11 (00:40) 3.61 (00:40) 0 0 0 0 0
12-08-2019 25.3 (18:10) 10.3 (00:00) 17.8 8.33 (17:40) 4.17 (23:10) 0 0 0 0 0
11-08-2019 25.8 (18:10) 14.7 (00:00) 20.2 7.78 (17:00) 3.89 (22:20) 1.6 1.6 0 0 0
10-08-2019 28.3 (18:20) 16.2 (00:00) 22.3 7.5 (21:20) 2.5 (16:10) 0 0 0 0 0
09-08-2019 27.4 (17:50) 18.4 (00:00) 22.9 9.44 (08:10) 4.44 (08:10) 1 0 1 0 0
08-08-2019 31 (17:00) 19.4 (00:00) 25.2 10.28 (17:00) 4.44 (18:30) 0 0 0 0 0
07-08-2019 29 (15:20) 19.5 (00:00) 24.3 7.78 (17:20) 2.78 (16:10) 0 0 0 0 0
06-08-2019 32.9 (17:00) 18.9 (00:00) 25.9 7.22 (20:20) 3.33 (21:00) 0 0 0 0 0
05-08-2019 34.5 (17:00) 16.7 (00:00) 25.6 8.06 (18:20) 3.06 (18:20) 0 0 0 0 0
04-08-2019 34.5 (17:20) 19.4 (00:00) 26.9 8.33 (18:40) 2.78 (18:50) 0 0 0 0 0
03-08-2019 36.1 (18:10) 18.1 (00:00) 27.1 6.94 (20:10) 3.06 (09:30) 0 0 0 0 0
02-08-2019 34.5 (18:00) 14.7 (00:00) 24.6 6.67 (01:10) 3.89 (00:20) 0 0 0 0 0
01-08-2019 33.2 (18:20) 15.2 (00:00) 24.2 5.83 (17:10) 3.33 (04:30) 0 0 0 0 0
31-07-2019 28.9 (18:10) 12.2 (00:00) 20.5 8.33 (11:40) 5.28 (19:40) 0 0 0 0 0
30-07-2019 27.3 (19:30) 11.9 (00:00) 19.6 8.33 (13:30) 3.89 (12:00) 0 0 0 0 0
29-07-2019 27.2 (17:40) 15.3 (00:00) 21.3 8.06 (16:30) 3.33 (15:30) 0 0 0 0 0
28-07-2019 30.2 (19:00) 11.7 (00:00) 21 5 (16:50) 2.78 (15:50) 0 0 0 0 0
27-07-2019 26.7 (16:50) 15 (00:00) 20.9 8.33 (16:50) 4.72 (19:40) 0 0 0 0 0
26-07-2019 28 (17:00) 14.8 (00:00) 21.4 8.61 (18:40) 3.33 (17:10) 0 0 0 0 0
25-07-2019 34 (17:10) 19.7 (00:00) 26.9 8.89 (14:40) 3.61 (15:30) 0 0 0 0 0
24-07-2019 36.7 (17:00) 18.9 (00:00) 27.8 9.17 (15:20) 3.33 (15:40) 0 0 0 0 0
23-07-2019 36.2 (16:30) 20.5 (00:00) 28.4 8.33 (19:40) 4.17 (23:50) 1.2 0.4 0.8 0 0
22-07-2019 38.7 (17:50) 19.6 (00:00) 29.2 17.78 (18:40) 7.5 (18:50) 0.6 0 0 0 0.6
21-07-2019 36.5 (18:30) 17.1 (00:00) 26.8 6.94 (12:30) 3.61 (11:50) 0 0 0 0 0

Gráficas

Temp. máximas Temp. mínimas Temp. medias Precipitaciones Rachas de viento máximas Velocidades máximas media en intervalos de 10 minutos

Datos horarios

Fecha y hora oficial Temperatura (ºC) Velocidad del viento (km/h) Dirección del viento Racha (km/h) Dirección de racha Precipitación (mm) Presión (hPa) Tendencia (hPa) Humedad (%)
2019-08-19 23:00:00 19.2 15 Nordeste 28 Nordeste 0 942.2 1.6 59
2019-08-19 22:00:00 21.1 13 Nordeste 24 Nordeste 0 941.7 1.3 52
2019-08-19 21:00:00 22.3 12 Este 28 Nordeste 0 940.8 0.2 47
2019-08-19 20:00:00 24.2 15 Nordeste 28 Este 0 940.6 -0.3 43
2019-08-19 19:00:00 26.3 6 Sur 13 Sur 0 940.4 -0.8 36
2019-08-19 18:00:00 26.7 5 Este 13 Nordeste 0 940.6 -1.1 36
2019-08-19 17:00:00 26.1 5 Nordeste 18 Nordeste 0 940.9 -0.9 37
2019-08-19 16:00:00 26.1 9 Nordeste 21 Norte 0 941.2 -1.1 39
2019-08-19 15:00:00 25.4 8 Este 18 Nordeste 0 941.7 -0.8 41
2019-08-19 14:00:00 23.9 8 Nordeste 21 Nordeste 0 941.8 -0.5 46
2019-08-19 13:00:00 21.1 9 Nordeste 22 Nordeste 0 942.3 0.1 56
2019-08-19 12:00:00 19.3 10 Nordeste 25 Nordeste 0 942.5 0.3 59
2019-08-19 11:00:00 18.1 13 Nordeste 26 Nordeste 0 942.3 0.2 63
2019-08-19 10:00:00 16.8 15 Nordeste 29 Norte 0 942.2 0.3 68
2019-08-19 09:00:00 15.7 10 Nordeste 21 Norte 0 942.2 0.6 70
2019-08-19 08:00:00 15.1 12 Norte 21 Norte 0 942.1 0.3 72
2019-08-19 07:00:00 15.3 10 Norte 20 Norte 0 941.9 0.1 73
2019-08-19 06:00:00 15.6 12 Norte 19 Norte 0 941.6 -0.3 73
2019-08-19 05:00:00 15.9 9 Norte 21 Norte 0 941.8 -0.3 73
2019-08-19 04:00:00 16.4 9 Nordeste 17 Nordeste 0 941.8 -0.2 73
2019-08-19 03:00:00 17.1 10 Norte 21 Nordeste 0 941.9 0.5 64
2019-08-19 02:00:00 18.2 10 Norte 21 Nordeste 0 942.1 1.4 58
2019-08-19 01:00:00 18.9 10 Norte 20 Nordeste 0 942 2.4 59
2019-08-19 00:00:00 21.2 11 Norte 19 Noroeste 0 941.4 2.5 52
2019-08-18 23:00:00 22.7 8 Noroeste 16 Norte 0 940.7 2.1 49
2019-08-18 22:00:00 24.7 5 Noroeste 19 Noroeste 0 939.6 0.7 41
2019-08-18 21:00:00 26.7 8 Oeste 21 Oeste 0 938.9 0 39
2019-08-18 20:00:00 28.1 7 Oeste 20 Oeste 0 938.6 -0.5 39
2019-08-18 19:00:00 28.5 9 Oeste 23 Oeste 0 938.9 -0.2 38
2019-08-18 18:00:00 28.6 8 Oeste 26 Oeste 0 938.9 -0.3 40
2019-08-18 17:00:00 29.4 10 Oeste 25 Noroeste 0 939.1 -0.5 40
2019-08-18 16:00:00 29.2 10 Oeste 25 Sudoeste 0 939.1 -0.7 42
2019-08-18 15:00:00 28.7 9 Sudoeste 23 Sudoeste 0 939.2 -0.8 43
2019-08-18 14:00:00 27.1 9 Oeste 22 Noroeste 0 939.6 0 46
2019-08-18 13:00:00 25.2 6 Oeste 22 Oeste 0 939.8 0.2 51
2019-08-18 12:00:00 23 9 Oeste 21 Oeste 0 940 0.7 56
2019-08-18 11:00:00 20.4 8 Oeste 21 Sudoeste 0 939.6 0.6 65
2019-08-18 10:00:00 19.9 8 Oeste 22 Noroeste 0 939.6 1 67
2019-08-18 09:00:00 18.2 6 Oeste 17 Sudoeste 0 939.3 0.8 74
2019-08-18 08:00:00 17 7 Oeste 15 Sudoeste 0 939 0.6 78
2019-08-18 07:00:00 17.5 9 Sudoeste 21 Oeste 0 938.6 0 73
2019-08-18 06:00:00 18.4 6 Oeste 18 Oeste 0 938.5 -0.4 64
2019-08-18 05:00:00 19.8 6 Sudoeste 13 Sur 0 938.4 -0.7 53
2019-08-18 04:00:00 20.8 5 Sudoeste 14 Oeste 0 938.6 -0.3 51
2019-08-18 03:00:00 22 4 Oeste 14 Oeste 0 938.9 0.2 45
2019-08-18 02:00:00 23.1 4 Oeste 14 Oeste 0 939.1 0.7 42
2019-08-18 01:00:00 24.3 6 Oeste 17 Noroeste 0 938.9 1.1 38
2019-08-18 00:00:00 25.7 5 Oeste 14 Sudoeste 0 938.7 1 35
2019-08-17 23:00:00 27 4 Oeste 19 Noroeste 0 938.4 0.7 31
2019-08-17 22:00:00 28.9 4 Oeste 15 Noroeste 0 937.8 -0.3 23
2019-08-17 21:00:00 31 4 Oeste 19 Oeste 0 937.7 -0.8 20
2019-08-17 20:00:00 33.8 7 Oeste 26 Sudoeste 0 937.7 -1.1 17
2019-08-17 19:00:00 34.6 10 Oeste 27 Sudoeste 0 938.1 -1.2 16
2019-08-17 18:00:00 35.3 9 Oeste 28 Oeste 0 938.5 -1.4 16
2019-08-17 17:00:00 35.2 8 Oeste 21 Oeste 0 938.8 -1.7 18
2019-08-17 16:00:00 34.2 7 Oeste 22 Noroeste 0 939.3 -1.9 19
2019-08-17 15:00:00 33.9 7 Sudoeste 23 Noroeste 0 939.9 -2 22
2019-08-17 14:00:00 32.3 6 Sudoeste 18 Oeste 0 940.5 -1.8 25
2019-08-17 13:00:00 30.1 6 Sudeste 15 Sudoeste 0 941.2 -1.1 35
2019-08-17 12:00:00 27 4 Sur 9 Sudoeste 0 941.9 -0.2 37
2019-08-17 11:00:00 23.4 4 Noroeste 10 Noroeste 0 942.3 0.3 49
2019-08-17 10:00:00 19.7 4 Noroeste 12 Noroeste 0 942.3 0.5 62
2019-08-17 09:00:00 17.5 4 Nordeste 9 Noroeste 0 942.1 0.5 70
2019-08-17 08:00:00 16 2 Oeste 7 Sudoeste 0 942 0.1 72
2019-08-17 07:00:00 16.1 3 Noroeste 6 Norte 0 941.8 -0.3 68
2019-08-17 06:00:00 16.5 3 Norte 5 Norte 0 941.6 -0.5 64
2019-08-17 05:00:00 19.1 4 Este 10 Sudoeste 0 941.9 -0.3 58
2019-08-17 04:00:00 20.7 3 Sur 11 Sudoeste 0 942.1 0.1 52
2019-08-17 03:00:00 22.3 4 Oeste 10 Sudoeste 0 942.1 0.2 46
2019-08-17 02:00:00 23.2 3 Oeste 10 Oeste 0 942.2 0.7 41
2019-08-17 01:00:00 24.3 4 Oeste 9 Oeste 0 942 1.3 37
2019-08-17 00:00:00 25 4 Noroeste 12 Noroeste 0 941.9 1.5 34
2019-08-16 23:00:00 26.3 0 Calma 11 Noroeste 0 941.5 1.4 30
2019-08-16 22:00:00 28.6 5 Noroeste 16 Norte 0 940.7 0.4 24
2019-08-16 21:00:00 30.9 7 Oeste 21 Noroeste 0 940.4 -0.1 18
2019-08-16 20:00:00 33.7 5 Oeste 21 Oeste 0 940.1 -0.8 17
2019-08-16 19:00:00 35 6 Oeste 20 Sudoeste 0 940.3 -1 16
2019-08-16 18:00:00 35.5 6 Oeste 23 Noroeste 0 940.5 -1.3 12
2019-08-16 17:00:00 34.9 6 Oeste 20 Oeste 0 940.9 -1.7 14
2019-08-16 16:00:00 33.8 7 Oeste 20 Oeste 0 941.3 -1.8 18
2019-08-16 15:00:00 31.9 4 Nordeste 17 Sudoeste 0 941.8 -1.8 27
2019-08-16 14:00:00 30.4 4 Sur 13 Sur 0 942.6 -1.2 30
2019-08-16 13:00:00 28.1 6 Sur 12 Sur 0 943.1 -0.9 38
2019-08-16 12:00:00 25.6 5 Este 14 Este 0 943.6 -0.5 45
2019-08-16 11:00:00 22.9 6 Nordeste 16 Norte 0 943.8 0.1 50
2019-08-16 10:00:00 20.5 8 Norte 22 Norte 0 944 0.5 57
2019-08-16 09:00:00 18.6 9 Nordeste 16 Nordeste 0 944.1 0.7 63
2019-08-16 08:00:00 16.7 6 Norte 13 Norte 0 943.7 0.1 70
2019-08-16 07:00:00 17 9 Norte 17 Norte 0 943.5 -0.2 69
2019-08-16 06:00:00 17.7 11 Norte 19 Norte 0 943.4 -0.4 64
2019-08-16 05:00:00 18.6 8 Norte 13 Nordeste 0 943.6 -0.3 59
2019-08-16 04:00:00 19.5 8 Norte 16 Norte 0 943.7 0.1 58
2019-08-16 03:00:00 20.5 8 Nordeste 17 Norte 0 943.8 0.4 57
2019-08-16 02:00:00 22.1 10 Nordeste 23 Nordeste 0 943.9 0.7 51
2019-08-16 01:00:00 23.7 10 Norte 28 Norte 0 943.6 1 46
2019-08-16 00:00:00 25.8 14 Noroeste 27 Noroeste 0 943.4 1.2 42
2019-08-15 23:00:00 27.1 5 Noroeste 14 Noroeste 0 943.2 1.1 40
2019-08-15 22:00:00 28.7 4 Noroeste 12 Oeste 0 942.6 0.3 33
2019-08-15 21:00:00 30.2 4 Sudeste 14 Este 0 942.2 -0.5 29
2019-08-15 20:00:00 32.2 8 Sudeste 16 Este 0 942.1 -1.1 27
2019-08-15 19:00:00 33.2 10 Sudeste 19 Sudeste 0 942.3 -1.7 25
2019-08-15 18:00:00 33.5 9 Sudeste 17 Norte 0 942.7 -1.7 24
2019-08-15 17:00:00 33.2 5 Sur 15 Sur 0 943.2 -1.7 23
2019-08-15 16:00:00 32.4 7 Sudeste 17 Sudeste 0 944 -1.6 26
2019-08-15 15:00:00 31.1 6 Sudeste 15 Este 0 944.4 -1.6 27
2019-08-15 14:00:00 29.1 4 Este 15 Nordeste 0 944.9 -1.2 34
2019-08-15 13:00:00 27.3 6 Nordeste 17 Este 0 945.6 -0.5 31
2019-08-15 12:00:00 25.4 10 Este 18 Este 0 946 -0.2 41
2019-08-15 11:00:00 23 5 Este 16 Sudeste 0 946.1 0.2 62
2019-08-15 10:00:00 19.8 4 Este 14 Nordeste 0 946.1 0.5 70
2019-08-15 09:00:00 17.7 6 Nordeste 11 Nordeste 0 946.2 0.9 76
2019-08-15 08:00:00 16.7 4 Nordeste 7 Nordeste 0 945.9 1.1 77
2019-08-15 07:00:00 17.1 4 Norte 10 Norte 0 945.6 0.7 75
2019-08-15 06:00:00 18.1 3 Nordeste 12 Norte 0 945.3 0.5 70
2019-08-15 05:00:00 19.3 6 Norte 15 Nordeste 0 944.8 0 67
2019-08-15 04:00:00 20 10 Norte 18 Norte 0 944.9 0.3 66
2019-08-15 03:00:00 20.6 6 Norte 14 Norte 0 944.8 0.2 64
2019-08-15 02:00:00 21.7 6 Nordeste 12 Nordeste 0 944.8 0.7 61
2019-08-15 01:00:00 23.8 4 Este 8 Noroeste 0 944.6 1.4 55
2019-08-15 00:00:00 25.2 3 Norte 13 Oeste 0 944.6 2.1 49
2019-08-14 23:00:00 26.8 5 Noroeste 12 Oeste 0 944.1 1.8 45
2019-08-14 22:00:00 28.4 5 Noroeste 17 Oeste 0 943.2 0.8 40
2019-08-14 21:00:00 30.2 6 Oeste 18 Oeste 0 942.5 -0.2 35
2019-08-14 20:00:00 32.3 5 Oeste 20 Oeste 0 942.3 -0.7 29
2019-08-14 19:00:00 33 7 Oeste 19 Oeste 0 942.4 -1.4 27
2019-08-14 18:00:00 33.3 8 Noroeste 17 Norte 0 942.7 -1.6 25
2019-08-14 17:00:00 32.7 5 Oeste 19 Sudoeste 0 943 -2 25
2019-08-14 16:00:00 32 6 Sudoeste 17 Oeste 0 943.8 -1.6 24
2019-08-14 15:00:00 30.4 5 Noroeste 19 Norte 0 944.3 -1.3 24
2019-08-14 14:00:00 28.8 4 Nordeste 12 Sudoeste 0 945 -1.1 29
2019-08-14 13:00:00 26 3 Noroeste 12 Sudoeste 0 945.4 -0.5 34
2019-08-14 12:00:00 24.2 4 Sudeste 12 Este 0 945.6 -0.3 40
2019-08-14 11:00:00 20.8 4 Este 10 Este 0 946.1 0.7 50
2019-08-14 10:00:00 17.8 3 Nordeste 10 Norte 0 945.9 0.9 53
2019-08-14 09:00:00 14.9 3 Norte 6 Norte 0 945.9 0.9 60
2019-08-14 08:00:00 13.3 2 Noroeste 9 Noroeste 0 945.4 0.5 63
2019-08-14 07:00:00 13.4 0 Calma 7 Norte 0 945 0.1 60
2019-08-14 06:00:00 13.8 5 Norte 13 Norte 0 945 -0.2 54
2019-08-14 05:00:00 15.3 6 Noroeste 14 Norte 0 944.9 -0.2 50
2019-08-14 04:00:00 16.5 2 Noroeste 5 Noroeste 0 944.9 0.2 46
2019-08-14 03:00:00 16.3 0 Calma 5 Norte 0 945.2 0.4 48
2019-08-14 02:00:00 17.5 2 Nordeste 6 Nordeste 0 945.1 0.7 48
2019-08-14 01:00:00 19.3 0 Calma 6 Sur 0 944.7 0.8 39
2019-08-14 00:00:00 20.3 0 Calma 5 Noroeste 0 944.8 1.1 35
2019-08-13 23:00:00 22.4 3 Sur 8 Sur 0 944.4 0.7 28
2019-08-13 22:00:00 23.8 6 Sudeste 9 Sudeste 0 943.9 0.2 26
2019-08-13 21:00:00 25.3 7 Sudeste 12 Este 0 943.7 -0.2 23
2019-08-13 20:00:00 27.5 6 Sudeste 15 Sur 0 943.7 -0.7 21
2019-08-13 19:00:00 28.4 5 Sur 15 Sudeste 0 943.7 -1.2 19
2019-08-13 18:00:00 28.2 6 Este 15 Este 0 943.9 -1.4 21
2019-08-13 17:00:00 27.9 6 Sudeste 15 Este 0 944.4 -1.5 23
2019-08-13 16:00:00 26.6 6 Norte 14 Nordeste 0 944.9 -1.4 22
2019-08-13 15:00:00 25.7 8 Este 16 Nordeste 0 945.3 -1.4 27
2019-08-13 14:00:00 24.1 9 Nordeste 18 Norte 0 945.9 -1 32
2019-08-13 13:00:00 22.7 6 Sudeste 19 Este 0 946.3 -0.6 36
2019-08-13 12:00:00 20.2 9 Nordeste 19 Nordeste 0 946.7 -0.3 45
2019-08-13 11:00:00 17.3 11 Nordeste 21 Este 0 946.9 0.2 54
2019-08-13 10:00:00 14.7 11 Nordeste 21 Nordeste 0 946.9 0.7 64
2019-08-13 09:00:00 12.4 10 Nordeste 18 Norte 0 947 0.7 71
2019-08-13 08:00:00 10.1 7 Norte 12 Norte 0 946.7 0.1 77
2019-08-13 07:00:00 10.2 5 Nordeste 9 Nordeste 0 946.2 -0.3 75
2019-08-13 06:00:00 11 4 Norte 9 Nordeste 0 946.3 -0.4 70
2019-08-13 05:00:00 11.8 4 Nordeste 14 Nordeste 0 946.6 -0.2 67
2019-08-13 04:00:00 12.7 6 Nordeste 12 Nordeste 0 946.5 0.1 65
2019-08-13 03:00:00 13.8 6 Nordeste 17 Nordeste 0 946.7 0.2 63
2019-08-13 02:00:00 14.6 11 Nordeste 17 Nordeste 0 946.8 1.1 61
2019-08-13 01:00:00 15.7 10 Nordeste 22 Nordeste 0 946.4 1.5 56
2019-08-13 00:00:00 17.1 12 Nordeste 26 Norte 0 946.5 2.1 51
2019-08-12 23:00:00 19 10 Norte 20 Norte 0 945.7 1.4 31
2019-08-12 22:00:00 20.5 5 Nordeste 13 Nordeste 0 944.9 0.5 30
2019-08-12 21:00:00 22.4 8 Nordeste 18 Nordeste 0 944.4 0 26
2019-08-12 20:00:00 22.8 11 Norte 24 Norte 0 944.3 -0.5 26
2019-08-12 19:00:00 24.6 14 Norte 26 Norte 0 944.4 -1 22
2019-08-12 18:00:00 25.1 10 Nordeste 30 Norte 0 944.4 -1.5 21
2019-08-12 17:00:00 25.1 8 Nordeste 28 Nordeste 0 944.8 -1.5 24
2019-08-12 16:00:00 24 12 Nordeste 24 Nordeste 0 945.4 -1.4 23
2019-08-12 15:00:00 23 6 Nordeste 28 Nordeste 0 945.9 -1.2 27
2019-08-12 14:00:00 21.9 13 Nordeste 26 Nordeste 0 946.3 -0.7 33
2019-08-12 13:00:00 20.5 8 Nordeste 23 Nordeste 0 946.8 0.1 35
2019-08-12 12:00:00 18.8 14 Este 27 Nordeste 0 947.1 0.6 44
2019-08-12 11:00:00 16.5 6 Nordeste 18 Nordeste 0 947 0.9 52
2019-08-12 10:00:00 13.8 7 Nordeste 15 Nordeste 0 946.7 1.1 64
2019-08-12 09:00:00 11.7 5 Nordeste 10 Nordeste 0 946.5 1.1 72
2019-08-12 08:00:00 10.4 2 Norte 4 Noroeste 0 946.1 0.8 75
2019-08-12 07:00:00 10.6 3 Este 5 Norte 0 945.6 0.3 74
2019-08-12 06:00:00 11.2 0 Calma 7 Norte 0 945.4 -0.1 71
2019-08-12 05:00:00 11.8 4 Este 13 Norte 0 945.3 -0.3 69
2019-08-12 04:00:00 12.4 5 Norte 11 Norte 0 945.3 -0.4 64
2019-08-12 03:00:00 13.4 3 Nordeste 15 Norte 0 945.5 0.1 61
2019-08-12 02:00:00 14.2 8 Noroeste 13 Norte 0 945.6 0.8 57
2019-08-12 01:00:00 15 6 Noroeste 13 Norte 0 945.7 1.9 54
2019-08-12 00:00:00 16 7 Noroeste 18 Noroeste 0 945.4 2.7 51
2019-08-11 23:00:00 17.2 10 Norte 24 Norte 0 944.8 2.8 47
2019-08-11 22:00:00 19.1 13 Noroeste 27 Norte 0 943.8 1.9 41
2019-08-11 21:00:00 21.5 7 Noroeste 23 Noroeste 0 942.7 1 33
2019-08-11 20:00:00 23.9 7 Oeste 25 Sudoeste 0 942 0.1 26
2019-08-11 19:00:00 24.8 10 Oeste 25 Oeste 0 941.9 -0.4 24
2019-08-11 18:00:00 25.7 7 Oeste 24 Oeste 0 941.7 -1 23
2019-08-11 17:00:00 25.2 10 Oeste 28 Sudoeste 0 941.9 -1.1 28
2019-08-11 16:00:00 24.3 10 Sudoeste 25 Sudoeste 0 942.3 -1.1 25
2019-08-11 15:00:00 23.4 9 Sudoeste 22 Oeste 0 942.7 -0.5 31
2019-08-11 14:00:00 21.9 7 Oeste 20 Sudoeste 0 943 -0.4 39
2019-08-11 13:00:00 20.1 7 Noroeste 19 Norte 0 943.4 0.3 52
2019-08-11 12:00:00 19.8 6 Oeste 20 Oeste 0 943.2 0.8 59
2019-08-11 11:00:00 17.7 7 Oeste 19 Oeste 0 943.4 1.2 68
2019-08-11 10:00:00 16.5 6 Oeste 17 Oeste 0 943.1 1.7 77
2019-08-11 09:00:00 16 4 Noroeste 11 Noroeste 0 942.4 0.8 83
2019-08-11 08:00:00 15 2 Oeste 11 Noroeste 0 942.2 0 90
2019-08-11 07:00:00 14.8 4 Este 11 Sudeste 0 941.4 -1.9 86
2019-08-11 06:00:00 15.3 5 Este 12 Este 0 941.6 -1.6 88
2019-08-11 05:00:00 15.9 4 Norte 10 Este 0.4 942.2 -0.7 83
2019-08-11 04:00:00 16.6 2 Noroeste 16 Noroeste 1.2 943.3 1.1 78
2019-08-11 03:00:00 18.8 10 Norte 18 Norte 0 943.2 0.7 59
2019-08-11 02:00:00 20 6 Norte 15 Norte 0 942.9 0.6 49
2019-08-11 01:00:00 21 6 Norte 12 Noroeste 0 942.2 0.2 43
2019-08-11 00:00:00 21.6 4 Noroeste 13 Noroeste 0 942.5 0.4 40
2019-08-10 23:00:00 22.1 5 Noroeste 17 Noroeste 0 942.3 0.5 36
2019-08-10 22:00:00 22.9 5 Noroeste 27 Noroeste 0 942 0.2 35
2019-08-10 21:00:00 24.7 8 Noroeste 24 Noroeste 0 942.1 0 29
2019-08-10 20:00:00 26.8 8 Oeste 23 Oeste 0 941.8 -0.9 23
2019-08-10 19:00:00 27.8 7 Oeste 24 Oeste 0 941.8 -1.6 23
2019-08-10 18:00:00 28.1 9 Sudoeste 22 Noroeste 0 942.1 -1.8 24
2019-08-10 17:00:00 27.9 7 Oeste 19 Oeste 0 942.7 -1.9 23
2019-08-10 16:00:00 27.1 6 Sudoeste 19 Noroeste 0 943.4 -1.6 27
2019-08-10 15:00:00 25.9 6 Este 16 Oeste 0 943.9 -1.4 33
2019-08-10 14:00:00 24.8 6 Sur 19 Sur 0 944.6 -0.8 33
2019-08-10 13:00:00 23.1 6 Sudoeste 14 Sudoeste 0 945 -0.3 35
2019-08-10 12:00:00 21.2 5 Oeste 13 Sudoeste 0 945.3 0.1 45
2019-08-10 11:00:00 19.7 4 Noroeste 17 Noroeste 0 945.4 0.7 50
2019-08-10 10:00:00 18.2 5 Noroeste 14 Oeste 0 945.3 0.9 60
2019-08-10 09:00:00 16.6 5 Oeste 12 Oeste 0 945.2 1.1 73
2019-08-10 08:00:00 16.2 3 Oeste 12 Sudoeste 0 944.7 0.7 73
2019-08-10 07:00:00 16.3 4 Oeste 11 Oeste 0 944.4 0.5 72
2019-08-10 06:00:00 16.4 5 Sudoeste 12 Oeste 0 944.1 0 70
2019-08-10 05:00:00 16.5 4 Oeste 12 Oeste 0 944 0 68
2019-08-10 04:00:00 16.5 5 Oeste 12 Oeste 0 943.9 0.2 67
2019-08-10 03:00:00 16.6 5 Oeste 15 Oeste 0 944.1 0.6 65
2019-08-10 02:00:00 17.2 5 Oeste 15 Oeste 0 944 0.8 63
2019-08-10 01:00:00 17.9 3 Oeste 14 Noroeste 0 943.7 1.6 59
2019-08-10 00:00:00 18.8 5 Oeste 13 Norte 0 943.5 2 56
2019-08-09 23:00:00 20.1 6 Noroeste 23 Oeste 0 943.2 2.4 53
2019-08-09 22:00:00 21.9 8 Oeste 28 Noroeste 0 942.1 1.4 46
2019-08-09 21:00:00 23.7 9 Oeste 23 Oeste 0 941.5 1 37
2019-08-09 20:00:00 25.8 8 Oeste 24 Oeste 0 940.8 0.2 36
2019-08-09 19:00:00 26.8 10 Oeste 27 Oeste 0 940.7 0 34
2019-08-09 18:00:00 27.4 11 Sudoeste 30 Oeste 0 940.5 -0.2 32
2019-08-09 17:00:00 26.3 11 Oeste 32 Sudoeste 0 940.6 -0.3 33
2019-08-09 16:00:00 27.1 9 Oeste 28 Oeste 0 940.7 0 31
2019-08-09 15:00:00 25.2 12 Oeste 32 Oeste 0 940.7 -0.1 37
2019-08-09 14:00:00 24.3 13 Oeste 33 Oeste 0 940.9 0.5 45
2019-08-09 13:00:00 22.8 10 Sudoeste 26 Sudoeste 0 940.7 1.1 57
2019-08-09 12:00:00 20.5 9 Oeste 26 Sudoeste 0.2 940.8 1.9 67
2019-08-09 11:00:00 19.3 9 Oeste 29 Oeste 0 940.4 2.7 75
2019-08-09 10:00:00 18.6 10 Oeste 24 Sudoeste 0 939.6 2.4 85
2019-08-09 09:00:00 18.9 8 Oeste 34 Oeste 0.8 938.9 1.4 87
2019-08-09 08:00:00 22 14 Sudoeste 31 Sudoeste 0 937.7 -0.1 74
2019-08-09 07:00:00 21.5 9 Sudoeste 26 Sudoeste 0 937.2 -0.8 75
2019-08-09 06:00:00 21.4 12 Sudoeste 27 Sudoeste 0 937.5 -0.3 73
2019-08-09 05:00:00 21.7 11 Oeste 24 Sudoeste 0 937.8 -0.2 70
2019-08-09 04:00:00 22.3 6 Sudoeste 22 Oeste 0 938 -0.1 66
2019-08-09 03:00:00 22.7 9 Sudoeste 22 Sudoeste 0 937.8 -0.4 63
2019-08-09 02:00:00 23.4 12 Sudoeste 27 Sudoeste 0 938 -0.2 60
2019-08-09 01:00:00 24.2 7 Sudoeste 22 Sudoeste 0 938.1 0.5 56
2019-08-09 00:00:00 24.9 9 Sudoeste 28 Sudoeste 0 938.2 1.1 52
2019-08-08 23:00:00 25.7 12 Sudoeste 26 Sudoeste 0 938.2 1.5 50
2019-08-08 22:00:00 26.7 10 Sudoeste 28 Sudoeste 0 937.6 0.8 47
2019-08-08 21:00:00 27.8 10 Sudoeste 36 Sudoeste 0 937.1 0.1 43
2019-08-08 20:00:00 29.7 14 Sudoeste 32 Sudoeste 0 936.7 -0.4 39
2019-08-08 19:00:00 30.1 15 Sudoeste 35 Sudoeste 0 936.8 -0.7 38
2019-08-08 18:00:00 30.3 11 Sudoeste 36 Sudoeste 0 937 -1.1 38
2019-08-08 17:00:00 30.8 14 Sudoeste 37 Sudoeste 0 937.1 -1.4 37
2019-08-08 16:00:00 29.4 13 Sudoeste 29 Sudoeste 0 937.5 -1.1 42
2019-08-08 15:00:00 28.8 10 Sudoeste 29 Sudoeste 0 938.1 -0.8 45
2019-08-08 14:00:00 27.3 9 Oeste 26 Noroeste 0 938.5 -0.4 51
2019-08-08 13:00:00 27.1 8 Oeste 21 Oeste 0 938.6 -0.7 53
2019-08-08 12:00:00 26.7 8 Sudoeste 25 Oeste 0 938.9 -0.3 55
2019-08-08 11:00:00 24.5 8 Oeste 19 Oeste 0 938.9 -0.2 63
2019-08-08 10:00:00 21.5 7 Oeste 14 Oeste 0 939.3 0.2 73
2019-08-08 09:00:00 20.2 2 Norte 7 Oeste 0 939.2 0.3 79
2019-08-08 08:00:00 19.7 3 Oeste 9 Sudoeste 0 939.1 -0.1 78
2019-08-08 07:00:00 19.7 4 Noroeste 20 Sudoeste 0 939.1 -0.3 77
2019-08-08 06:00:00 20.4 6 Sur 12 Sur 0 938.9 -0.8 67
2019-08-08 05:00:00 20.8 6 Sur 14 Sur 0 939.2 -0.5 66
2019-08-08 04:00:00 21.4 6 Sur 17 Sudoeste 0 939.4 -0.2 64
2019-08-08 03:00:00 21.3 3 Sudoeste 8 Oeste 0 939.7 0.1 70
2019-08-08 02:00:00 20.9 3 Sur 8 Sur 0 939.7 0.1 73
2019-08-08 01:00:00 20.7 4 Sur 8 Sur 0 939.6 0.6 77
2019-08-08 00:00:00 20.7 3 Sur 8 Sur 0 939.6 0.8 77
2019-08-07 23:00:00 20.8 4 Norte 11 Norte 0 939.6 1 75
2019-08-07 22:00:00 21.4 5 Noroeste 13 Noroeste 0 939 0 72
2019-08-07 21:00:00 22.1 5 Noroeste 12 Noroeste 0 938.8 -0.2 67
2019-08-07 20:00:00 23.2 5 Noroeste 17 Noroeste 0 938.6 -0.3 61
2019-08-07 19:00:00 23.4 6 Noroeste 21 Oeste 0 939 0.4 55
2019-08-07 18:00:00 23.4 8 Noroeste 28 Noroeste 0 939 0.4 60
2019-08-07 17:00:00 25.6 8 Oeste 23 Oeste 0 938.9 -0.1 41
2019-08-07 16:00:00 28.2 8 Oeste 24 Oeste 0 938.6 -0.5 33
2019-08-07 15:00:00 28.6 7 Sudoeste 17 Sur 0 938.6 -0.6 36
2019-08-07 14:00:00 26.3 6 Oeste 17 Sudoeste 0 939 -0.1 44
2019-08-07 13:00:00 25.7 5 Oeste 13 Oeste 0 939.1 0.3 47
2019-08-07 12:00:00 24.2 4 Norte 12 Noroeste 0 939.2 0.9 52
2019-08-07 11:00:00 22.7 4 Noroeste 10 Sudoeste 0 939.1 1.1 56
2019-08-07 10:00:00 21 4 Oeste 12 Oeste 0 938.8 1.1 62
2019-08-07 09:00:00 19.8 3 Sudoeste 12 Sudoeste 0 938.3 0.7 67
2019-08-07 08:00:00 19.5 5 Oeste 13 Oeste 0 938 0.7 69
2019-08-07 07:00:00 19.7 4 Noroeste 9 Oeste 0 937.7 0.2 69
2019-08-07 06:00:00 20.2 4 Noroeste 9 Oeste 0 937.6 0.1 66
2019-08-07 05:00:00 21.1 3 Noroeste 10 Oeste 0 937.3 -0.7 61
2019-08-07 04:00:00 21.8 2 Noroeste 6 Este 0 937.5 -0.8 56
2019-08-07 03:00:00 22.5 4 Este 9 Nordeste 0 937.5 -0.8 57
2019-08-07 02:00:00 23.3 4 Nordeste 9 Oeste 0 938 -0.1 53
2019-08-07 01:00:00 24 5 Oeste 15 Noroeste 0 938.3 0.9 50
2019-08-07 00:00:00 24.6 4 Oeste 14 Oeste 0 938.3 1.2 48
2019-08-06 23:00:00 25.3 3 Oeste 12 Oeste 0 938.1 1.7 45
2019-08-06 22:00:00 25.7 6 Noroeste 25 Noroeste 0 937.4 1.2 42
2019-08-06 21:00:00 26.4 12 Noroeste 26 Norte 0 937.1 0.6 42
2019-08-06 20:00:00 28.4 7 Noroeste 25 Noroeste 0 936.4 -0.4 33
2019-08-06 19:00:00 30.8 8 Oeste 21 Nordeste 0 936.2 -1.2 24
2019-08-06 18:00:00 32.6 9 Oeste 24 Oeste 0 936.5 -1.3 24
2019-08-06 17:00:00 32.8 8 Oeste 21 Sudoeste 0 936.8 -1.6 21
2019-08-06 16:00:00 32.1 8 Oeste 18 Noroeste 0 937.4 -1.6 23
2019-08-06 15:00:00 31.6 6 Noroeste 17 Sudoeste 0 937.8 -1.8 27
2019-08-06 14:00:00 30.5 5 Oeste 15 Noroeste 0 938.4 -1.3 32
2019-08-06 13:00:00 28.7 6 Oeste 14 Oeste 0 939 -0.8 38
2019-08-06 12:00:00 26 3 Noroeste 10 Oeste 0 939.6 0.1 50
2019-08-06 11:00:00 23.8 4 Noroeste 13 Noroeste 0 939.7 0.3 58
2019-08-06 10:00:00 21.6 4 Noroeste 11 Noroeste 0 939.8 0.5 64
2019-08-06 09:00:00 20.3 3 Norte 9 Noroeste 0 939.5 0.1 63
2019-08-06 08:00:00 19 3 Noroeste 9 Oeste 0 939.4 -0.3 72
2019-08-06 07:00:00 19.4 2 Oeste 11 Oeste 0 939.3 -0.2 70
2019-08-06 06:00:00 20 3 Noroeste 13 Oeste 0 939.4 -0.4 67
2019-08-06 05:00:00 20.9 5 Oeste 17 Sudoeste 0 939.7 0.1 63
2019-08-06 04:00:00 22 4 Oeste 8 Sudoeste 0 939.5 0.1 55
2019-08-06 03:00:00 22 3 Nordeste 8 Nordeste 0 939.8 0.6 52
2019-08-06 02:00:00 23.3 3 Norte 14 Noroeste 0 939.6 0.8 47
2019-08-06 01:00:00 24.9 5 Oeste 10 Oeste 0 939.4 1.1 41
2019-08-06 00:00:00 26 3 Oeste 14 Oeste 0 939.2 1.3 36
2019-08-05 23:00:00 27.4 5 Oeste 15 Noroeste 0 938.8 1.2 32
2019-08-05 22:00:00 29 6 Oeste 17 Oeste 0 938.3 0.7 27
2019-08-05 21:00:00 30.8 7 Oeste 19 Noroeste 0 937.9 0.2 23
2019-08-05 20:00:00 33.2 6 Oeste 21 Noroeste 0 937.6 -0.6 22
2019-08-05 19:00:00 33.8 9 Oeste 29 Norte 0 937.6 -1.2 24
2019-08-05 18:00:00 34.3 9 Oeste 22 Oeste 0 937.7 -1.6 20
2019-08-05 17:00:00 34.5 5 Sudoeste 15 Sudoeste 0 938.2 -1.6 23
2019-08-05 16:00:00 33.4 5 Sudeste 13 Norte 0 938.8 -1.5 26
2019-08-05 15:00:00 31.5 6 Nordeste 15 Nordeste 0 939.3 -1.6 32
2019-08-05 14:00:00 30 4 Nordeste 15 Este 0 939.8 -1.4 36
2019-08-05 13:00:00 28.8 6 Norte 18 Norte 0 940.3 -1.2 40
2019-08-05 12:00:00 26.1 8 Norte 16 Norte 0 940.9 -0.6 49
2019-08-05 11:00:00 23.4 10 Norte 18 Nordeste 0 941.2 -0.3 58
2019-08-05 10:00:00 20.8 6 Nordeste 12 Norte 0 941.5 0.2 66
2019-08-05 09:00:00 18.7 7 Nordeste 13 Norte 0 941.5 0.3 73
2019-08-05 08:00:00 16.8 5 Norte 11 Norte 0 941.5 0.4 78
2019-08-05 07:00:00 17.1 6 Norte 12 Norte 0 941.3 -0.1 77
2019-08-05 06:00:00 17.9 5 Norte 11 Norte 0 941.2 0.1 72
2019-08-05 05:00:00 18.8 8 Norte 13 Norte 0 941.1 -0.1 71
2019-08-05 04:00:00 20.4 9 Norte 18 Norte 0 941.4 0.5 63
2019-08-05 03:00:00 21.9 5 Noroeste 12 Noroeste 0 941.1 0.8 51
2019-08-05 02:00:00 22.6 4 Este 6 Sudeste 0 941.2 1.1 54
2019-08-05 01:00:00 24.4 2 Noroeste 12 Nordeste 0 940.9 1.5 45
2019-08-05 00:00:00 25.6 3 Noroeste 11 Noroeste 0 940.3 1.4 41
2019-08-04 23:00:00 27.1 5 Oeste 10 Noroeste 0 940.1 1.5 36
2019-08-04 22:00:00 28.7 3 Noroeste 17 Oeste 0 939.4 0.9 29
2019-08-04 21:00:00 30.7 6 Oeste 25 Oeste 0 938.9 0.3 23
2019-08-04 20:00:00 32.8 6 Oeste 21 Noroeste 0 938.6 0 19
2019-08-04 19:00:00 33.6 8 Oeste 30 Oeste 0 938.5 -0.4 20
2019-08-04 18:00:00 34.2 9 Sudoeste 26 Sudoeste 0 938.6 -0.6 19
2019-08-04 17:00:00 34.2 7 Oeste 22 Oeste 0 938.6 -1 23
2019-08-04 16:00:00 33.4 9 Oeste 22 Sudoeste 0 938.9 -1.4 26
2019-08-04 15:00:00 32.7 8 Oeste 21 Sudoeste 0 939.2 -1.3 28
2019-08-04 14:00:00 31.5 6 Oeste 18 Sur 0 939.6 -1.1 32
2019-08-04 13:00:00 29.8 5 Sudoeste 13 Sudoeste 0 940.3 -0.6 37
2019-08-04 12:00:00 27 4 Este 9 Noroeste 0 940.5 -0.2 49
2019-08-04 11:00:00 24.8 4 Norte 11 Norte 0 940.7 0.3 52
2019-08-04 10:00:00 22.5 6 Noroeste 11 Norte 0 940.9 0.8 62
2019-08-04 09:00:00 20.2 3 Oeste 11 Oeste 0 940.7 0.7 67
2019-08-04 08:00:00 19.4 4 Oeste 10 Oeste 0 940.4 0.2 70
2019-08-04 07:00:00 19.8 2 Oeste 11 Noroeste 0 940.1 -0.1 67
2019-08-04 06:00:00 21 5 Oeste 13 Sudoeste 0 940 0.1 61
2019-08-04 05:00:00 21.5 3 Oeste 8 Sudoeste 0 940.2 0.3 57
2019-08-04 04:00:00 22.3 0 Calma 10 Noroeste 0 940.2 0.7 48
2019-08-04 03:00:00 23.6 5 Noroeste 12 Oeste 0 939.9 0.8 45
2019-08-04 02:00:00 23.5 3 Noroeste 6 Noroeste 0 939.9 1.2 41
2019-08-04 01:00:00 24.6 0 Calma 9 Nordeste 0 939.5 1.6 37
2019-08-04 00:00:00 26.1 5 Noroeste 16 Noroeste 0 939.1 1.6 37
2019-08-03 23:00:00 28.2 5 Noroeste 18 Norte 0 938.7 1.5 29
2019-08-03 22:00:00 30.1 3 Noroeste 13 Oeste 0 937.9 0.7 25
2019-08-03 21:00:00 32 7 Oeste 25 Oeste 0 937.5 0.1 23
2019-08-03 20:00:00 34.4 8 Oeste 19 Oeste 0 937.2 -0.7 19
2019-08-03 19:00:00 35.3 6 Oeste 23 Sudoeste 0 937.2 -1.1 17
2019-08-03 18:00:00 36 4 Oeste 20 Sudoeste 0 937.4 -1.4 19
2019-08-03 17:00:00 35.9 6 Oeste 20 Sudoeste 0 937.9 -1.5 16
2019-08-03 16:00:00 35.4 7 Sudeste 14 Sudeste 0 938.3 -1.6 21
2019-08-03 15:00:00 33.9 10 Sur 17 Sur 0 938.8 -1.2 24
2019-08-03 14:00:00 32 6 Sur 14 Sur 0 939.4 -0.8 30
2019-08-03 13:00:00 29.6 7 Nordeste 14 Nordeste 0 939.9 -0.6 34
2019-08-03 12:00:00 27.2 6 Este 12 Nordeste 0 940 -0.3 41
2019-08-03 11:00:00 24.2 6 Este 13 Nordeste 0 940.2 0.2 47
2019-08-03 10:00:00 21.7 8 Este 17 Nordeste 0 940.5 0.5 56
2019-08-03 09:00:00 19.6 6 Nordeste 14 Norte 0 940.3 0.5 61
2019-08-03 08:00:00 18.2 5 Norte 15 Norte 0 940 0.3 64
2019-08-03 07:00:00 18.2 9 Norte 14 Norte 0 940 0 64
2019-08-03 06:00:00 19 6 Norte 14 Norte 0 939.8 -0.3 61
2019-08-03 05:00:00 19.6 8 Norte 15 Norte 0 939.7 -0.4 60
2019-08-03 04:00:00 20.1 6 Norte 15 Norte 0 940 0.1 58
2019-08-03 03:00:00 21 4 Nordeste 10 Este 0 940.1 0.3 51
2019-08-03 02:00:00 21.9 7 Nordeste 12 Este 0 940.1 0.5 45
2019-08-03 01:00:00 24.3 2 Noroeste 5 Noroeste 0 939.9 0.7 33
2019-08-03 00:00:00 25.9 3 Oeste 12 Noroeste 0 939.8 0.7 27
2019-08-02 23:00:00 27.1 2 Norte 4 Nordeste 0 939.6 0.5 27
2019-08-02 22:00:00 29.3 0 Calma 4 Nordeste 0 939.2 -0.1 24
2019-08-02 21:00:00 31.2 3 Sudeste 10 Nordeste 0 939.1 -0.5 20
2019-08-02 20:00:00 33.7 4 Nordeste 12 Noroeste 0 939.1 -0.9 18
2019-08-02 19:00:00 33.9 6 Sudeste 21 Este 0 939.3 -1.3 17
2019-08-02 18:00:00 34.4 4 Sur 14 Sudeste 0 939.6 -1.3 17
2019-08-02 17:00:00 33.4 4 Nordeste 17 Sur 0 940 -1.5 16
2019-08-02 16:00:00 32.8 5 Sudoeste 15 Este 0 940.6 -1.2 19
2019-08-02 15:00:00 30.8 6 Nordeste 15 Nordeste 0 940.9 -1.3 29
2019-08-02 14:00:00 28.4 8 Nordeste 19 Este 0 941.5 -0.8 39
2019-08-02 13:00:00 26 8 Nordeste 18 Este 0 941.8 -0.5 46
2019-08-02 12:00:00 23.2 7 Nordeste 17 Nordeste 0 942.2 0.1 56
2019-08-02 11:00:00 20.6 11 Este 18 Nordeste 0 942.3 0.5 66
2019-08-02 10:00:00 18 13 Nordeste 22 Nordeste 0 942.3 0.9 72
2019-08-02 09:00:00 16.5 11 Nordeste 21 Norte 0 942.1 0.8 76
2019-08-02 08:00:00 14.9 6 Nordeste 15 Norte 0 941.8 0.3 81
2019-08-02 07:00:00 15 8 Norte 13 Norte 0 941.4 -0.2 79
2019-08-02 06:00:00 15.8 8 Nordeste 14 Nordeste 0 941.3 -0.1 79
2019-08-02 05:00:00 16.2 6 Nordeste 17 Nordeste 0 941.5 0.1 78
2019-08-02 04:00:00 16.8 10 Nordeste 20 Nordeste 0 941.6 0.8 77
2019-08-02 03:00:00 17.8 9 Nordeste 23 Nordeste 0 941.4 1.6 73
2019-08-02 02:00:00 19.2 10 Nordeste 24 Nordeste 0 941.4 2.3 69
2019-08-02 01:00:00 21.1 10 Nordeste 22 Nordeste 0 940.8 2.2 62
2019-08-02 00:00:00 24.3 4 Noroeste 15 Noroeste 0 939.8 1.6 32
2019-08-01 23:00:00 25.3 2 Noroeste 8 Noroeste 0 939.1 1.4 28
2019-08-01 22:00:00 27.5 3 Noroeste 13 Noroeste 0 938.6 1.1 23
2019-08-01 21:00:00 29.6 5 Noroeste 18 Noroeste 0 938.2 0.6 19
2019-08-01 20:00:00 31.4 6 Noroeste 19 Oeste 0 937.7 0 17
2019-08-01 19:00:00 31.6 5 Oeste 21 Sudoeste 0 937.5 -0.6 19
2019-08-01 18:00:00 32.9 7 Oeste 21 Oeste 0 937.6 -0.9 18
2019-08-01 17:00:00 32.4 5 Noroeste 19 Noroeste 0 937.7 -1.2 20
2019-08-01 16:00:00 31.5 7 Sudoeste 19 Noroeste 0 938.1 -0.9 24
2019-08-01 15:00:00 30.2 6 Sudoeste 16 Oeste 0 938.5 -0.9 27
2019-08-01 14:00:00 28.5 7 Norte 14 Norte 0 938.9 -0.4 34
2019-08-01 13:00:00 26.5 6 Norte 15 Nordeste 0 939 -0.1 39
2019-08-01 12:00:00 24.1 8 Nordeste 16 Norte 0 939.4 0.5 47
2019-08-01 11:00:00 21.6 6 Nordeste 14 Nordeste 0 939.3 0.7 58
2019-08-01 10:00:00 19.1 8 Este 19 Nordeste 0 939.1 0.9 65
2019-08-01 09:00:00 17.1 11 Norte 21 Norte 0 938.9 0.7 70
2019-08-01 08:00:00 15.3 7 Norte 14 Norte 0 938.6 0.5 74
2019-08-01 07:00:00 15.5 6 Norte 14 Norte 0 938.2 -0.2 73
2019-08-01 06:00:00 16.3 6 Norte 17 Norte 0 938.2 -0.4 69
2019-08-01 05:00:00 17 10 Norte 20 Norte 0 938.1 -0.8 67
2019-08-01 04:00:00 17.8 11 Norte 18 Norte 0 938.4 -0.4 64
2019-08-01 03:00:00 19.3 9 Norte 16 Norte 0 938.6 -0.3 59
2019-08-01 02:00:00 20.4 8 Norte 12 Norte 0 938.9 0.1 55
2019-08-01 01:00:00 21 5 Nordeste 12 Nordeste 0 938.8 0.6 52
2019-08-01 00:00:00 21.8 3 Nordeste 13 Nordeste 0 938.9 0.9 43
2019-07-31 23:00:00 23.4 6 Norte 18 Norte 0 938.8 1 33
2019-07-31 22:00:00 25 11 Norte 22 Norte 0 938.2 0.1 30
2019-07-31 21:00:00 26.2 13 Norte 26 Norte 0 938 -0.5 28
2019-07-31 20:00:00 27.3 18 Norte 28 Norte 0 937.8 -1.1 27
2019-07-31 19:00:00 28.1 15 Norte 24 Norte 0 938.1 -1.6 27
2019-07-31 18:00:00 28.8 6 Nordeste 17 Nordeste 0 938.5 -1.7 28
2019-07-31 17:00:00 27.9 9 Nordeste 21 Este 0 938.9 -2.1 30
2019-07-31 16:00:00 27.8 10 Nordeste 26 Norte 0 939.7 -1.8 32
2019-07-31 15:00:00 26 14 Nordeste 28 Nordeste 0 940.2 -1.9 36
2019-07-31 14:00:00 23.8 17 Nordeste 27 Nordeste 0 941 -1.4 38
2019-07-31 13:00:00 22.5 14 Nordeste 28 Nordeste 0 941.5 -1.1 44
2019-07-31 12:00:00 19.9 14 Nordeste 30 Este 0 942.1 -0.7 50
2019-07-31 11:00:00 18.4 14 Nordeste 25 Este 0 942.4 -0.4 55
2019-07-31 10:00:00 16 12 Nordeste 23 Este 0 942.6 -0.2 65
2019-07-31 09:00:00 13.8 11 Nordeste 24 Nordeste 0 942.8 -0.1 73
2019-07-31 08:00:00 12.5 13 Norte 21 Nordeste 0 942.8 -0.3 77
2019-07-31 07:00:00 12.5 10 Norte 20 Norte 0 942.8 -0.5 77
2019-07-31 06:00:00 12.9 9 Nordeste 19 Norte 0 942.9 -0.5 76
2019-07-31 05:00:00 13.4 11 Norte 23 Norte 0 943.1 -0.2 73
2019-07-31 04:00:00 13.9 11 Norte 22 Nordeste 0 943.3 0.5 71
2019-07-31 03:00:00 14.6 11 Nordeste 21 Nordeste 0 943.4 1 67
2019-07-31 02:00:00 15.7 12 Nordeste 24 Norte 0 943.3 1.2 61
2019-07-31 01:00:00 17.2 8 Nordeste 17 Este 0 942.8 1.2 56
2019-07-31 00:00:00 18.7 6 Nordeste 10 Nordeste 0 942.4 1.1 29
2019-07-30 23:00:00 20.6 4 Norte 9 Norte 0 942.1 0.8 26
2019-07-30 22:00:00 22.7 5 Nordeste 15 Norte 0 941.6 0.1 25
2019-07-30 21:00:00 24.7 10 Norte 21 Norte 0 941.3 -0.6 22
2019-07-30 20:00:00 26.6 10 Norte 24 Norte 0 941.3 -1 21
2019-07-30 19:00:00 27.2 9 Nordeste 21 Nordeste 0 941.5 -1.3 22
2019-07-30 18:00:00 26.9 10 Nordeste 23 Este 0 941.9 -1.3 23
2019-07-30 17:00:00 26.8 12 Nordeste 23 Este 0 942.3 -1.4 22
2019-07-30 16:00:00 25.9 12 Nordeste 23 Norte 0 942.8 -1.5 25
2019-07-30 15:00:00 24.6 10 Nordeste 24 Nordeste 0 943.2 -1.2 30
2019-07-30 14:00:00 23.1 12 Nordeste 30 Norte 0 943.7 -0.7 35
2019-07-30 13:00:00 21.8 11 Nordeste 23 Nordeste 0 944.3 -0.5 40
2019-07-30 12:00:00 20.1 14 Norte 22 Nordeste 0 944.4 0 41
2019-07-30 11:00:00 18.2 11 Nordeste 25 Norte 0 944.4 0.4 44
2019-07-30 10:00:00 15.8 9 Norte 20 Norte 0 944.8 1.3 54
2019-07-30 09:00:00 13.7 2 Norte 6 Noroeste 0 944.4 1 60
2019-07-30 08:00:00 12.1 3 Noroeste 7 Oeste 0 944 0.4 69
2019-07-30 07:00:00 12 3 Oeste 5 Oeste 0 943.5 0.3 70
2019-07-30 06:00:00 12.5 3 Sur 8 Sur 0 943.4 0.6 68
2019-07-30 05:00:00 12.6 2 Noroeste 9 Norte 0 943.6 1.1 66
2019-07-30 04:00:00 13.7 4 Noroeste 14 Oeste 0 943.2 0.9 62
2019-07-30 03:00:00 14.7 6 Oeste 12 Noroeste 0 942.8 1.2 57
2019-07-30 02:00:00 15.5 5 Oeste 18 Oeste 0 942.5 1.4 53
2019-07-30 01:00:00 16.8 6 Noroeste 21 Oeste 0 942.3 2.1 49
2019-07-30 00:00:00 17.8 6 Noroeste 23 Noroeste 0 941.6 2.2 47
2019-07-29 23:00:00 19 8 Noroeste 23 Noroeste 0 941.1 2.2 41
2019-07-29 22:00:00 20.8 9 Noroeste 24 Oeste 0 940.2 1.7 34
2019-07-29 21:00:00 23 9 Noroeste 27 Noroeste 0 939.4 0.9 31
2019-07-29 20:00:00 25.6 8 Oeste 24 Oeste 0 938.9 0.4 26
2019-07-29 19:00:00 26.8 8 Oeste 28 Noroeste 0 938.5 0.1 25
2019-07-29 18:00:00 26.9 10 Noroeste 29 Oeste 0 938.5 0 24
2019-07-29 17:00:00 26.8 9 Oeste 29 Oeste 0 938.5 0.1 26
2019-07-29 16:00:00 26.8 11 Oeste 27 Oeste 0 938.4 -0.2 26
2019-07-29 15:00:00 25.9 10 Oeste 28 Sudoeste 0 938.5 -0.2 29
2019-07-29 14:00:00 25 9 Oeste 28 Oeste 0 938.4 -0.1 33
2019-07-29 13:00:00 23.3 8 Oeste 27 Oeste 0 938.6 0.4 37
2019-07-29 12:00:00 22 9 Oeste 27 Sudoeste 0 938.7 0.7 46
2019-07-29 11:00:00 20.7 8 Oeste 23 Oeste 0 938.5 0.8 50
2019-07-29 10:00:00 19 8 Oeste 18 Oeste 0 938.2 1.1 55
2019-07-29 09:00:00 16.6 8 Sudoeste 19 Sudoeste 0 938 1.1 55
2019-07-29 08:00:00 15.3 6 Sudoeste 16 Sudoeste 0 937.7 0.7 53
2019-07-29 07:00:00 15.4 5 Sudoeste 18 Sudoeste 0 937.1 0.3 57
2019-07-29 06:00:00 16.3 8 Sudoeste 15 Sudoeste 0 936.9 0.1 54
2019-07-29 05:00:00 17.2 7 Oeste 15 Noroeste 0 937 0.5 44
2019-07-29 04:00:00 18.3 6 Oeste 18 Oeste 0 936.8 0.6 41
2019-07-29 03:00:00 19.5 9 Oeste 23 Sudoeste 0 936.8 0.7 37
2019-07-29 02:00:00 20.5 7 Oeste 16 Oeste 0 936.5 0.5 38
2019-07-29 01:00:00 21.6 4 Oeste 13 Oeste 0 936.2 0.7 35
2019-07-29 00:00:00 23.3 7 Oeste 17 Oeste 0 936.1 0.8 26
2019-07-28 23:00:00 24.1 2 Oeste 12 Oeste 0 936 1 25
2019-07-28 22:00:00 26 6 Oeste 15 Oeste 0 935.5 0.4 18
2019-07-28 21:00:00 27.8 6 Oeste 16 Noroeste 0 935.3 -0.1 19
2019-07-28 20:00:00 29.4 8 Oeste 17 Sudoeste 0 935 -1.1 19
2019-07-28 19:00:00 29.8 8 Oeste 18 Sudoeste 0 935.1 -1.7 18
2019-07-28 18:00:00 29.5 8 Norte 17 Norte 0 935.4 -1.9 22
2019-07-28 17:00:00 28.6 6 Nordeste 18 Norte 0 936.1 -2 25
2019-07-28 16:00:00 27.4 7 Este 18 Sur 0 936.8 -1.9 32
2019-07-28 15:00:00 25.9 9 Sur 17 Sur 0 937.3 -1.6 33
2019-07-28 14:00:00 24.5 7 Sudeste 14 Sudeste 0 938.1 -1.1 37
2019-07-28 13:00:00 23.1 6 Sudeste 16 Este 0 938.7 -0.7 43
2019-07-28 12:00:00 21 6 Sudeste 17 Este 0 938.9 -0.3 49
2019-07-28 11:00:00 19.1 9 Nordeste 18 Nordeste 0 939.2 -0.1 58
2019-07-28 10:00:00 16.6 8 Este 14 Nordeste 0 939.4 0.4 67
2019-07-28 09:00:00 13.6 7 Nordeste 12 Nordeste 0 939.2 0.5 79
2019-07-28 08:00:00 11.7 3 Nordeste 6 Norte 0 939.3 0.2 83
2019-07-28 07:00:00 12.2 3 Nordeste 7 Nordeste 0 939 -0.3 81
2019-07-28 06:00:00 12.8 4 Nordeste 8 Este 0 938.7 -0.4 80
2019-07-28 05:00:00 13.5 4 Este 7 Nordeste 0 939.1 0.1 78
2019-07-28 04:00:00 14 3 Nordeste 6 Nordeste 0 939.3 0.4 75
2019-07-28 03:00:00 14.6 5 Nordeste 14 Este 0 939.1 0.7 74
2019-07-28 02:00:00 15.5 5 Nordeste 12 Este 0 939 1.4 73
2019-07-28 01:00:00 16.3 9 Este 15 Este 0 938.9 2.3 70
2019-07-28 00:00:00 17.5 5 Nordeste 16 Nordeste 0 938.4 2.7 67
2019-07-27 23:00:00 18.8 8 Nordeste 25 Este 0 937.6 2.5 62
2019-07-26 12:00:00 21.8 6 Sudoeste 15 Sur 0 939.6 0 44
2019-07-26 11:00:00 19.7 5 Oeste 14 Oeste 0 939.8 0.4 57
2019-07-26 10:00:00 17.2 5 Oeste 21 Oeste 0 939.6 0.1 64
2019-07-26 09:00:00 15.6 9 Oeste 22 Sudoeste 0 939.6 0.1 71
2019-07-26 08:00:00 14.9 9 Oeste 22 Oeste 0 939.4 -0.2 74
2019-07-26 07:00:00 16.4 6 Oeste 22 Oeste 0 939.5 -0.4 66
2019-07-26 06:00:00 17.7 8 Oeste 21 Sudoeste 0 939.5 -0.5 60
2019-07-26 05:00:00 18.3 6 Oeste 23 Sudoeste 0 939.6 -0.2 62
2019-07-26 04:00:00 19.6 5 Oeste 14 Oeste 0 939.9 0.2 66
2019-07-26 03:00:00 20.1 5 Noroeste 17 Noroeste 0 940 0.4 69
2019-07-26 02:00:00 20.5 6 Oeste 21 Noroeste 0 939.8 0.7 69
2019-07-26 01:00:00 21.8 6 Oeste 19 Oeste 0 939.7 1.3 66
2019-07-26 00:00:00 22.8 8 Oeste 20 Noroeste 0 939.6 1.3 61
2019-07-25 23:00:00 24.1 8 Noroeste 24 Oeste 0 939.1 1.9 55
2019-07-25 22:00:00 25.5 5 Noroeste 23 Oeste 0 938.4 1.4 47
2019-07-25 21:00:00 26.4 9 Noroeste 29 Norte 0 938.3 1.1 43
2019-07-25 20:00:00 29.8 9 Noroeste 24 Oeste 0 937.2 -0.4 32
2019-07-25 19:00:00 31.7 8 Oeste 28 Sudoeste 0 937 -0.9 27
2019-07-25 18:00:00 32.7 10 Oeste 23 Oeste 0 937.2 -1 25
2019-07-25 17:00:00 33.8 6 Oeste 26 Oeste 0 937.6 -1.1 24
2019-07-25 16:00:00 33.2 9 Oeste 31 Oeste 0 937.9 -1 24
2019-07-25 15:00:00 32.5 10 Oeste 32 Sudoeste 0 938.2 -0.7 18
2019-07-25 14:00:00 32 13 Sudoeste 29 Sudoeste 0 938.7 -0.4 20
2019-07-25 13:00:00 30.7 10 Sudoeste 24 Sudoeste 0 938.9 -0.4 24
2019-07-25 12:00:00 28.4 4 Oeste 13 Noroeste 0 938.9 -0.5 32
2019-07-25 11:00:00 25.7 5 Oeste 12 Sudoeste 0 939.1 0.1 38
2019-07-25 10:00:00 24 5 Noroeste 10 Oeste 0 939.3 0.3 43
2019-07-25 09:00:00 21.7 4 Oeste 9 Noroeste 0 939.4 0.7 47
2019-07-25 08:00:00 19.7 2 Noroeste 8 Sur 0 939 0.3 56
2019-07-25 07:00:00 20.1 4 Sur 11 Sur 0 939 0.4 52
2019-07-25 06:00:00 20.6 5 Sur 10 Sur 0 938.7 0.1 51
2019-07-25 05:00:00 21.8 4 Sur 18 Oeste 0 938.7 -0.1 51
2019-07-25 04:00:00 22.8 7 Sudoeste 17 Oeste 0 938.6 -0.2 47
2019-07-25 03:00:00 23.8 6 Oeste 14 Noroeste 0 938.6 0 48
2019-07-25 02:00:00 25 5 Oeste 10 Oeste 0 938.8 0.6 46
2019-07-25 01:00:00 26 3 Oeste 15 Oeste 0 938.8 1.2 43
2019-07-25 00:00:00 27.5 6 Oeste 17 Oeste 0 938.6 1.4 40
2019-07-24 23:00:00 29.7 6 Oeste 15 Oeste 0 938.2 1.2 31
2019-07-24 22:00:00 31.9 5 Sudoeste 19 Sudoeste 0 937.6 0.5 26
2019-07-24 21:00:00 33.8 8 Sudoeste 27 Sudoeste 0 937.2 -0.3 22
2019-07-24 20:00:00 35.2 10 Sudoeste 30 Sudoeste 0 937 -1 21
2019-07-24 19:00:00 36.4 9 Sudoeste 30 Oeste 0 937.1 -1.4 20
2019-07-24 18:00:00 36.6 9 Oeste 32 Sudoeste 0 937.5 -1.7 19
2019-07-24 17:00:00 36.2 9 Oeste 28 Oeste 0 938 -1.6 19
2019-07-24 16:00:00 35.4 10 Sudoeste 33 Sudoeste 0 938.5 -1.9 21
2019-07-24 15:00:00 35.2 9 Sudoeste 28 Sudoeste 0 939.2 -1.6 22
2019-07-24 14:00:00 33.4 7 Sudoeste 18 Sur 0 939.6 -1.5 28
2019-07-24 13:00:00 31 6 Sur 12 Sur 0 940.4 -0.7 38
2019-07-24 12:00:00 28.8 5 Este 12 Este 0 940.8 -0.1 46
2019-07-24 11:00:00 25.8 4 Este 13 Este 0 941.1 0.2 52
2019-07-24 10:00:00 22.6 8 Norte 14 Nordeste 0 941.1 0.4 65
2019-07-24 09:00:00 20.7 5 Nordeste 11 Este 0 940.9 0.1 72
2019-07-24 08:00:00 19.1 4 Este 10 Nordeste 0 940.9 0 78
2019-07-24 07:00:00 19.4 5 Norte 13 Noroeste 0 940.7 0.1 77
2019-07-24 06:00:00 19.9 4 Noroeste 8 Noroeste 0 940.8 -0.1 73
2019-07-24 05:00:00 20.4 5 Norte 13 Sudeste 0 940.9 -0.6 76
2019-07-24 04:00:00 21.5 0 Calma 6 Norte 0 940.6 -0.9 68
2019-07-24 03:00:00 22.4 2 Noroeste 10 Sudoeste 0 940.9 -1.1 64
2019-07-24 02:00:00 22.9 2 Noroeste 8 Norte 0 941.5 0.3 60
2019-07-24 01:00:00 23.4 3 Norte 11 Norte 0 941.5 1.5 59
2019-07-24 00:00:00 24 8 Este 30 Sudeste 0 942 2.3 59
2019-07-23 23:00:00 24.9 5 Noroeste 19 Nordeste 0 941.2 2.2 56
2019-07-23 22:00:00 26.5 4 Oeste 13 Noroeste 0 940 1.1 50
2019-07-23 21:00:00 27.7 3 Oeste 18 Noroeste 0 939.7 0.3 44
2019-07-23 20:00:00 28.3 6 Oeste 30 Oeste 0 939 -0.6 42
2019-07-23 19:00:00 29.6 4 Oeste 25 Oeste 0 938.9 -1.2 33
2019-07-23 18:00:00 32.7 5 Noroeste 21 Noroeste 0 939.4 -1 28
2019-07-23 17:00:00 34.9 6 Sudoeste 19 Sur 0 939.6 -1.1 26
2019-07-23 16:00:00 35.7 9 Sudoeste 26 Sur 0 940.1 -1.6 24
2019-07-23 15:00:00 35.2 7 Sur 17 Sur 0 940.4 -1.8 25
2019-07-23 14:00:00 32.6 6 Sur 18 Sur 0 940.7 -1 28
2019-07-23 13:00:00 30.5 12 Sur 19 Sudeste 0 941.7 0.3 33
2019-07-23 12:00:00 27.3 7 Sur 21 Sur 0 942.2 0.1 50
2019-07-23 11:00:00 26.4 6 Sur 11 Sur 0 941.7 -1.8 54
2019-07-23 10:00:00 23.6 3 Este 15 Este 0 941.4 -1.7 59
2019-07-23 09:00:00 21.6 5 Sudeste 12 Este 0 942.1 -1.5 76
2019-07-23 08:00:00 20.6 3 Este 15 Este 0 943.5 1.7 79
2019-07-23 07:00:00 21.1 4 Sudoeste 12 Nordeste 0.8 943.1 0.8 74
2019-07-23 06:00:00 22.3 4 Oeste 22 Oeste 0.2 943.6 1.2 65
2019-07-23 05:00:00 21.5 6 Nordeste 15 Sur 0 941.8 -0.7 65
2019-07-23 04:00:00 23.4 6 Este 15 Sur 0 942.3 -1.3 57
2019-07-23 03:00:00 23.4 8 Sudeste 19 Sudeste 0 942.4 -2.1 57
2019-07-23 02:00:00 24.1 2 Noroeste 14 Norte 0 942.5 -0.6 50
2019-07-23 01:00:00 24.5 5 Nordeste 19 Sudoeste 0.2 943.6 1.5 58
2019-07-23 00:00:00 24.8 14 Sur 26 Sudeste 0 944.5 2.8 52
2019-07-22 23:00:00 25.8 5 Norte 19 Norte 0 943.1 0 45
2019-07-22 22:00:00 26.3 12 Norte 37 Norte 0 942.1 -0.9 42
2019-07-22 21:00:00 29.5 9 Oeste 33 Norte 0 941.7 0.8 32
2019-07-22 20:00:00 28.9 14 Norte 42 Sur 0.6 943.1 1.6 32
2019-07-22 19:00:00 27.5 18 Sudeste 64 Sur 0 943 0.7 44
2019-07-22 18:00:00 38.2 5 Este 18 Norte 0 940.9 -2.1 18
2019-07-22 17:00:00 38.1 7 Nordeste 18 Norte 0 941.5 -2.2 20
2019-07-22 16:00:00 37.3 6 Norte 13 Norte 0 942.3 -1.9 22
2019-07-22 15:00:00 35.9 4 Oeste 10 Sur 0 943 -1.5 26
2019-07-22 14:00:00 33.6 4 Sudeste 12 Sudeste 0 943.7 -0.9 32
2019-07-22 13:00:00 31.1 6 Este 14 Este 0 944.2 -0.7 37
2019-07-22 12:00:00 28.3 9 Nordeste 19 Este 0 944.5 -0.1 46
2019-07-22 11:00:00 25.6 12 Nordeste 19 Nordeste 0 944.6 -0.1 55
2019-07-22 10:00:00 23 10 Nordeste 21 Norte 0 944.9 0.5 64
2019-07-22 09:00:00 21.5 10 Nordeste 25 Norte 0 944.6 0.4 70
2019-07-22 08:00:00 19.9 11 Norte 22 Nordeste 0 944.7 0.4 77
2019-07-22 07:00:00 19.7 10 Norte 23 Norte 0 944.4 -0.1 77
2019-07-22 06:00:00 20.1 14 Norte 26 Nordeste 0 944.2 -0.3 75
2019-07-22 05:00:00 20.6 13 Norte 22 Norte 0 944.3 -0.3 73
2019-07-22 04:00:00 21.4 11 Norte 20 Nordeste 0 944.5 0 71
2019-07-22 03:00:00 22.5 9 Nordeste 20 Norte 0 944.5 0.4 67
2019-07-22 02:00:00 24.1 8 Norte 17 Norte 0 944.6 1.1 61
2019-07-22 01:00:00 25.9 4 Norte 12 Nordeste 0 944.5 1.9 39
2019-07-22 00:00:00 27.5 2 Noroeste 11 Nordeste 0 944.1 1.8 28
2019-07-21 23:00:00 29.4 3 Noroeste 12 Nordeste 0 943.5 1.5 24
2019-07-21 22:00:00 31.8 2 Noroeste 14 Noroeste 0 942.6 0.6 20
2019-07-21 21:00:00 34.5 4 Noroeste 13 Oeste 0 942.3 -0.1 16
2019-07-21 20:00:00 35.7 6 Norte 17 Norte 0 942 -0.8 15
2019-07-21 19:00:00 36.5 5 Norte 12 Oeste 0 942 -1.4 17
2019-07-21 18:00:00 36.4 5 Oeste 15 Oeste 0 942.4 -1.3 18
2019-07-21 17:00:00 35.5 5 Oeste 16 Sur 0 942.8 -1.5 20
2019-07-21 16:00:00 34.2 6 Sur 18 Nordeste 0 943.4 -1.4 28
2019-07-21 15:00:00 32.1 6 Nordeste 19 Nordeste 0 943.7 -1.1 33
2019-07-21 14:00:00 30 9 Nordeste 22 Nordeste 0 944.3 -0.4 39
2019-07-21 13:00:00 28.1 10 Nordeste 25 Nordeste 0 944.8 0 47
2019-07-21 12:00:00 25.5 13 Nordeste 24 Nordeste 0 944.8 0.2 53
2019-07-21 11:00:00 23.2 12 Nordeste 22 Nordeste 0 944.7 0.6 62
2019-07-21 10:00:00 20.5 12 Nordeste 21 Nordeste 0 944.8 0.9 71
2019-07-21 09:00:00 18.8 12 Norte 21 Norte 0 944.6 0.6 78
2019-07-21 08:00:00 17.3 7 Nordeste 13 Nordeste 0 944.1 0 82
2019-07-21 07:00:00 17.3 4 Nordeste 10 Nordeste 0 943.9 -0.2 82
2019-07-21 06:00:00 17.9 6 Nordeste 15 Norte 0 944 0.1 81
2019-07-21 05:00:00 18.4 8 Nordeste 17 Nordeste 0 944.1 0.5 79
2019-07-21 04:00:00 18.9 10 Nordeste 19 Nordeste 0 944.1 0.9 78
2019-07-21 03:00:00 19.9 10 Nordeste 21 Norte 0 943.9 1.5 73
2019-07-21 02:00:00 22.1 9 Norte 17 Norte 0 943.6 2 59
2019-07-21 01:00:00 24 4 Norte 11 Nordeste 0 943.2 2.4 43
2019-07-21 00:00:00 25.9 2 Noroeste 12 Noroeste 0 942.4 2 40